Briercrest, Canada
Current Conditions -  °F | °C
As of 3:37 PM on Monday 24 Nov 2014 (Local Time) from CYQR Reporting Station
Light Snow Light Snow  
Wind Chill: 15°   Ceiling: 1100
Heat Index: 28°   Visibility: 6mi
Dew Point: 25°   Wind: 21mph
Humidity: 86%   Direction: 310°NW
Pressure: 29.9"   Gusts: 28mph
Location:  50.17°N, 105.27°W
Report Text: CYQR 242137Z 31018G24KT 6SM -SN DRSN OVC011 M02/M04 A2990 RMK SC8 SLP167
Loading
Personal Weather Stations






























Interactive Weather Map New forecast layout! Learn more

10-Day Weather Forecast

Advertisements
Track Severe Weather on mobile